Time;durP1;ratioP1;P1;durP2;ratioP2;P2;SDS_P1;SDS_P2;PMS_P1;PMS_P2;Temp;Humidity;BMP_temperature;BMP_pressure;BME280_temperature;BME280_humidity;BME280_pressure;Samples;Min_cycle;Max_cycle;Signal;HPM_P1;HPM_P2
2024/03/09 00:01:29;;;;;;;;;;;;;;;15.91;44.81;101279.41;4961188;29;1006;-42
2024/03/09 00:03:56;;;;;;;;;;;;;;;15.65;45.37;101278.34;4948467;28;1014;-44
2024/03/09 00:06:21;;;;;;;;;;;;;;;15.59;45.44;101281.38;4959782;29;1910;-43
2024/03/09 00:08:48;;;;;;;;;;;;;;;17.11;42.26;101281.66;4936867;29;993;-43
2024/03/09 00:11:14;;;;;;;;;;;;;;;17.26;41.71;101281.56;4960658;29;1175;-43
2024/03/09 00:13:40;;;;;;;;;;;;;;;16.34;43.67;101277.69;4959744;29;1216;-42
2024/03/09 00:16:06;;;;;;;;;;;;;;;15.93;44.37;101278.47;4960908;29;1065;-43
2024/03/09 00:18:32;;;;;;;;;;;;;;;15.67;45.25;101282.63;4943148;29;1029;-44
2024/03/09 00:20:57;;;;;;;;;;;;;;;16.07;44.29;101270.53;4960313;29;866;-42
2024/03/09 00:23:26;;;;;;;;;;;;;;;17.36;41.51;101260.53;4947640;29;1161;-45
2024/03/09 00:25:52;;;;;;;;;;;;;;;16.57;42.91;101263.88;4960214;29;1904;-43
2024/03/09 00:28:18;;;;;;;;;;;;;;;15.95;44.18;101265.97;4960111;28;1065;-41
2024/03/09 00:30:43;;;;;;;;;;;;;;;15.66;45.37;101266.81;4960569;29;1049;-45
2024/03/09 00:33:09;;;;;;;;;;;;;;;16.68;43.24;101260.53;4959672;29;1044;-41
2024/03/09 00:35:34;;;;;;;;;;;;;;;17.23;41.56;101260.53;4960543;29;1066;-42
2024/03/09 00:38:00;;;;;;;;;;;;;;;16.27;43.87;101256.00;4960403;29;1119;-43
2024/03/09 00:40:28;;;;;;;;;;;;;;;15.85;44.45;101261.22;4942852;29;1182;-42
2024/03/09 00:42:55;;;;;;;;;;;;;;;15.58;45.03;101258.47;4960340;29;1116;-44
2024/03/09 00:45:21;;;;;;;;;;;;;;;16.38;43.92;101257.13;4957231;29;1907;-45
2024/03/09 00:47:47;;;;;;;;;;;;;;;17.39;41.34;101255.00;4947613;29;1062;-43
2024/03/09 00:50:12;;;;;;;;;;;;;;;16.31;43.74;101259.31;4959711;29;1065;-43
2024/03/09 00:52:38;;;;;;;;;;;;;;;15.91;44.82;101254.69;4960052;29;1165;-42
2024/03/09 00:55:10;;;;;;;;;;;;;;;15.64;45.36;101250.97;4959689;29;1004;-46
2024/03/09 00:57:39;;;;;;;;;;;;;;;15.35;46.00;101255.41;4950613;29;1039;-41
2024/03/09 01:00:10;;;;;;;;;;;;;;;16.85;42.55;101243.50;4959582;29;1093;-43
2024/03/09 01:02:37;;;;;;;;;;;;;;;17.29;41.55;101235.31;4950757;29;1117;-41
2024/03/09 01:05:02;;;;;;;;;;;;;;;16.36;43.38;101237.78;4956012;29;1125;-44
2024/03/09 01:07:30;;;;;;;;;;;;;;;15.86;44.81;101244.38;4959677;29;1906;-44
2024/03/09 01:09:55;;;;;;;;;;;;;;;15.60;45.35;101236.19;4959004;29;865;-44
2024/03/09 01:12:21;;;;;;;;;;;;;;;16.40;43.77;101237.47;4950165;29;1197;-44
2024/03/09 01:14:48;;;;;;;;;;;;;;;17.58;40.98;101240.44;4943494;29;1057;-41
2024/03/09 01:17:21;;;;;;;;;;;;;;;16.67;42.63;101240.22;4959044;28;1107;-43
2024/03/09 01:19:52;;;;;;;;;;;;;;;16.06;44.38;101230.81;4959056;29;1069;-42
2024/03/09 01:22:19;;;;;;;;;;;;;;;15.77;45.01;101234.31;4958917;29;1041;-44
2024/03/09 01:24:49;;;;;;;;;;;;;;;15.67;45.24;101231.38;4959083;29;1216;-44
2024/03/09 01:27:15;;;;;;;;;;;;;;;17.19;42.01;101237.75;4959312;29;1906;-42
2024/03/09 01:29:46;;;;;;;;;;;;;;;16.92;42.09;101233.28;4958900;29;1248;-42
2024/03/09 01:32:12;;;;;;;;;;;;;;;16.14;44.19;101228.53;4958724;29;1053;-43
2024/03/09 01:34:37;;;;;;;;;;;;;;;15.83;44.71;101225.97;4959077;29;1029;-43
2024/03/09 01:37:05;;;;;;;;;;;;;;;15.59;45.20;101229.19;4947767;29;1141;-44
2024/03/09 01:39:31;;;;;;;;;;;;;;;15.97;44.67;101229.53;4958277;29;1122;-47
2024/03/09 01:41:56;;;;;;;;;;;;;;;17.31;41.61;101230.75;4958667;29;1151;-44
2024/03/09 01:44:22;;;;;;;;;;;;;;;16.66;42.57;101234.09;4958558;29;1081;-46
2024/03/09 01:46:49;;;;;;;;;;;;;;;16.06;44.15;101230.81;4958908;29;1902;-43
2024/03/09 01:49:15;;;;;;;;;;;;;;;15.71;45.09;101224.94;4958431;29;1002;-42
2024/03/09 01:51:43;;;;;;;;;;;;;;;15.47;45.34;101232.56;4959334;29;1108;-46
2024/03/09 01:54:12;;;;;;;;;;;;;;;16.43;43.53;101225.81;4958691;29;1189;-42
2024/03/09 01:56:38;;;;;;;;;;;;;;;17.53;41.04;101231.91;4958541;29;1152;-45
2024/03/09 01:59:07;;;;;;;;;;;;;;;16.52;43.17;101224.34;4945996;29;1272;-44
2024/03/09 02:01:34;;;;;;;;;;;;;;;16.00;44.11;101226.72;4958466;29;1053;-45
2024/03/09 02:03:59;;;;;;;;;;;;;;;15.69;45.15;101218.88;4958717;29;1128;-46
2024/03/09 02:06:27;;;;;;;;;;;;;;;16.28;43.75;101228.50;4958354;29;1973;-41
2024/03/09 02:08:58;;;;;;;;;;;;;;;17.46;41.27;101229.69;4952860;29;864;-45
2024/03/09 02:11:23;;;;;;;;;;;;;;;16.48;43.28;101230.81;4958329;29;1141;-40
2024/03/09 02:13:50;;;;;;;;;;;;;;;15.97;44.01;101233.06;4951079;29;1165;-44
2024/03/09 02:16:16;;;;;;;;;;;;;;;15.60;45.30;101236.19;4952372;29;1177;-43
2024/03/09 02:18:45;;;;;;;;;;;;;;;16.72;43.11;101227.50;4946627;29;1212;-44
2024/03/09 02:21:12;;;;;;;;;;;;;;;17.04;41.93;101235.13;4957804;28;1175;-42
2024/03/09 02:23:37;;;;;;;;;;;;;;;16.18;43.46;101230.06;4958121;29;1029;-40
2024/03/09 02:26:03;;;;;;;;;;;;;;;15.83;44.52;101233.09;4958419;29;1910;-43
2024/03/09 02:28:28;;;;;;;;;;;;;;;15.59;45.29;101236.28;4949935;28;1162;-45
2024/03/09 02:30:54;;;;;;;;;;;;;;;15.43;45.73;101235.41;4953963;29;1058;-42
2024/03/09 02:33:20;;;;;;;;;;;;;;;16.96;42.32;101240.97;4958253;29;859;-46
2024/03/09 02:35:46;;;;;;;;;;;;;;;17.35;41.31;101240.22;4958421;29;1120;-41
2024/03/09 02:38:13;;;;;;;;;;;;;;;16.34;43.53;101237.00;4958278;29;1228;-43
2024/03/09 02:40:39;;;;;;;;;;;;;;;15.97;44.41;101238.38;4958107;29;1105;-41
2024/03/09 02:43:05;;;;;;;;;;;;;;;15.72;44.90;101242.56;4957952;29;1065;-40
2024/03/09 02:45:32;;;;;;;;;;;;;;;15.42;45.82;101254.06;4957635;29;1906;-42
2024/03/09 02:47:58;;;;;;;;;;;;;;;16.49;43.54;101257.28;4957963;29;1177;-42
2024/03/09 02:50:24;;;;;;;;;;;;;;;17.38;41.30;101254.13;4957976;29;1112;-43
2024/03/09 02:52:50;;;;;;;;;;;;;;;16.44;43.47;101255.88;4949329;29;1153;-43
2024/03/09 02:55:16;;;;;;;;;;;;;;;15.90;44.25;101242.34;4951241;29;1158;-43
2024/03/09 02:57:41;;;;;;;;;;;;;;;15.60;45.05;101243.31;4947507;29;914;-40
2024/03/09 03:00:08;;;;;;;;;;;;;;;15.36;45.46;101252.66;4957574;29;1207;-42
2024/03/09 03:05:18;;;;;;;;;;;;;;;17.18;41.55;101249.34;4957911;29;1148;-40
2024/03/09 03:07:43;;;;;;;;;;;;;;;16.14;43.71;101255.94;4958212;29;1105;-43
2024/03/09 03:10:10;;;;;;;;;;;;;;;15.81;44.67;101264.16;4957541;29;1132;-40
2024/03/09 03:12:37;;;;;;;;;;;;;;;15.49;45.50;101265.16;4957684;29;1144;-40
2024/03/09 03:15:07;;;;;;;;;;;;;;;16.68;43.00;101263.19;4956706;29;1216;-40
2024/03/09 03:17:33;;;;;;;;;;;;;;;17.33;41.38;101263.41;4957900;29;1061;-42
2024/03/09 03:19:59;;;;;;;;;;;;;;;16.28;43.61;101263.00;4957649;28;1140;-42
2024/03/09 03:22:24;;;;;;;;;;;;;;;15.91;44.31;101266.13;4954654;29;937;-42
2024/03/09 03:24:50;;;;;;;;;;;;;;;15.54;45.28;101266.59;4957208;29;1026;-44
2024/03/09 03:27:19;;;;;;;;;;;;;;;15.92;44.84;101267.00;4957616;29;1981;-43
2024/03/09 03:29:44;;;;;;;;;;;;;;;17.31;41.35;101266.16;4957730;29;1121;-40
2024/03/09 03:32:10;;;;;;;;;;;;;;;16.65;42.57;101264.22;4957437;29;1038;-42
2024/03/09 03:34:37;;;;;;;;;;;;;;;16.01;44.23;101255.84;4952104;29;1053;-41
2024/03/09 03:37:04;;;;;;;;;;;;;;;15.66;44.75;101258.84;4933267;29;1119;-41
2024/03/09 03:39:30;;;;;;;;;;;;;;;15.37;45.47;101262.31;4946650;29;1236;-42
2024/03/09 03:41:55;;;;;;;;;;;;;;;16.76;42.67;101253.78;4961076;29;1077;-43
2024/03/09 03:44:21;;;;;;;;;;;;;;;17.16;41.52;101259.22;4960622;29;1385;-43
2024/03/09 03:46:47;;;;;;;;;;;;;;;16.23;43.32;101251.00;4957466;29;1902;-46
2024/03/09 03:49:12;;;;;;;;;;;;;;;15.83;44.71;101251.66;4960900;29;1006;-45
2024/03/09 03:51:39;;;;;;;;;;;;;;;15.81;44.99;101254.41;4960957;29;1041;-47
2024/03/09 03:54:04;;;;;;;;;;;;;;;17.27;41.57;101255.84;4955043;29;1171;-46
2024/03/09 03:56:30;;;;;;;;;;;;;;;16.55;42.98;101255.19;4952894;29;1486;-43
2024/03/09 03:58:55;;;;;;;;;;;;;;;15.99;44.42;101267.50;4934362;29;2415;-46
2024/03/09 04:01:23;;;;;;;;;;;;;;;15.63;45.03;101265.16;4960682;29;1192;-43
2024/03/09 04:03:49;;;;;;;;;;;;;;;16.52;43.34;101266.84;4947946;29;1094;-46
2024/03/09 04:06:14;;;;;;;;;;;;;;;17.34;41.18;101268.63;4960245;29;1974;-41
2024/03/09 04:08:40;;;;;;;;;;;;;;;16.43;43.31;101264.78;4960787;29;1126;-42
2024/03/09 04:11:05;;;;;;;;;;;;;;;15.83;44.62;101263.09;4956594;28;926;-45
2024/03/09 04:13:31;;;;;;;;;;;;;;;15.65;45.16;101265.06;4960592;29;1137;-42
2024/03/09 04:15:57;;;;;;;;;;;;;;;15.66;45.23;101264.16;4959986;29;1049;-47
2024/03/09 04:18:22;;;;;;;;;;;;;;;17.16;41.90;101261.88;4960646;28;1077;-43
2024/03/09 04:20:48;;;;;;;;;;;;;;;16.73;42.32;101267.25;4960612;29;1066;-42
2024/03/09 04:23:16;;;;;;;;;;;;;;;16.04;44.03;101262.75;4948351;29;1092;-41
2024/03/09 04:25:43;;;;;;;;;;;;;;;15.77;44.54;101263.47;4959824;29;1899;-47
2024/03/09 04:28:15;;;;;;;;;;;;;;;15.51;45.42;101265.94;4960052;28;1038;-41
2024/03/09 04:30:42;;;;;;;;;;;;;;;16.93;42.44;101264.25;4960239;29;1120;-43
2024/03/09 04:33:10;;;;;;;;;;;;;;;17.03;41.74;101268.00;4947449;29;1176;-44
2024/03/09 04:35:37;;;;;;;;;;;;;;;16.14;43.69;101261.25;4953700;29;887;-44
2024/03/09 04:38:03;;;;;;;;;;;;;;;16.15;43.63;101262.06;4947248;29;1014;-42
2024/03/09 04:40:29;;;;;;;;;;;;;;;15.54;44.98;101271.91;4960117;29;1034;-44
2024/03/09 04:42:55;;;;;;;;;;;;;;;16.98;42.31;101270.94;4959838;29;1066;-43
2024/03/09 04:45:25;;;;;;;;;;;;;;;17.02;41.69;101264.47;4959808;29;1085;-43
2024/03/09 04:47:51;;;;;;;;;;;;;;;16.20;43.47;101265.28;4947567;29;1412;-47
2024/03/09 04:50:19;;;;;;;;;;;;;;;15.81;44.74;101269.47;4947187;29;1157;-46
2024/03/09 04:52:48;;;;;;;;;;;;;;;15.74;44.72;101276.94;4952277;29;1157;-42
2024/03/09 04:55:29;;;;;;;;;;;;;;;17.19;41.86;101270.50;4955020;29;1216;-45
2024/03/09 04:57:54;;;;;;;;;;;;;;;16.85;42.21;101273.56;4959269;29;1054;-46
2024/03/09 05:00:20;;;;;;;;;;;;;;;16.10;43.79;101267.69;4946754;29;1150;-45
2024/03/09 05:02:46;;;;;;;;;;;;;;;15.78;44.72;101273.16;4959502;29;1158;-41
2024/03/09 05:05:17;;;;;;;;;;;;;;;15.58;45.16;101277.03;4947096;29;1121;-43
2024/03/09 05:07:49;;;;;;;;;;;;;;;16.62;42.87;101273.28;4959460;29;1911;-48
2024/03/09 05:10:17;;;;;;;;;;;;;;;17.46;40.93;101284.69;4958944;29;1022;-45
2024/03/09 05:13:04;;;;;;;;;;;;;;;16.84;42.39;101282.50;4946574;29;1192;-40
2024/03/09 05:15:30;;;;;;;;;;;;;;;16.28;43.27;101284.25;4948362;29;983;-42
2024/03/09 05:17:56;;;;;;;;;;;;;;;15.43;45.38;101285.78;4946408;29;1192;-41
2024/03/09 05:20:25;;;;;;;;;;;;;;;14.99;45.61;101290.13;4957007;29;1147;-42
2024/03/09 05:22:54;;;;;;;;;;;;;;;16.27;44.12;101295.81;4952838;29;1269;-40
2024/03/09 05:25:21;;;;;;;;;;;;;;;15.67;44.81;101297.66;4958236;29;946;-47
2024/03/09 05:27:47;;;;;;;;;;;;;;;15.01;45.78;101300.63;4958932;29;1914;-40
2024/03/09 05:30:14;;;;;;;;;;;;;;;15.71;45.62;101298.34;4940884;29;1208;-40
2024/03/09 05:32:49;;;;;;;;;;;;;;;16.35;43.55;101300.63;4959059;29;1003;-40
2024/03/09 05:35:15;;;;;;;;;;;;;;;15.25;45.68;101306.28;4959043;29;1113;-41
2024/03/09 05:37:41;;;;;;;;;;;;;;;14.99;45.60;101311.31;4958779;29;1085;-41
2024/03/09 05:40:10;;;;;;;;;;;;;;;16.28;43.56;101302.00;4959344;29;1113;-40
2024/03/09 05:42:39;;;;;;;;;;;;;;;15.26;46.44;101312.44;4958971;29;1010;-43
2024/03/09 05:45:09;;;;;;;;;;;;;;;17.42;41.43;101312.44;4946101;29;1149;-43
2024/03/09 05:47:35;;;;;;;;;;;;;;;16.04;43.90;101305.22;4954311;29;1983;-46
2024/03/09 05:50:01;;;;;;;;;;;;;;;15.33;45.48;101311.13;4958493;29;1358;-43
2024/03/09 05:52:26;;;;;;;;;;;;;;;15.12;45.61;101311.47;4958989;29;1080;-44
2024/03/09 05:54:52;;;;;;;;;;;;;;;17.03;42.46;101315.84;4958239;29;2491;-42
2024/03/09 05:57:18;;;;;;;;;;;;;;;15.49;45.28;101313.75;4958053;29;1395;-40
2024/03/09 05:59:44;;;;;;;;;;;;;;;16.44;43.98;101320.47;4955895;29;1009;-43
2024/03/09 06:02:09;;;;;;;;;;;;;;;16.57;43.04;101317.88;4957975;28;1061;-46
2024/03/09 06:04:35;;;;;;;;;;;;;;;15.51;45.18;101316.31;4953539;29;1229;-41
2024/03/09 06:07:01;;;;;;;;;;;;;;;17.32;41.88;101312.22;4958055;29;1985;-42
2024/03/09 06:09:26;;;;;;;;;;;;;;;15.85;44.27;101306.31;4958555;29;1046;-42
2024/03/09 06:11:52;;;;;;;;;;;;;;;15.35;45.33;101309.25;4948197;29;1081;-40
2024/03/09 06:14:20;;;;;;;;;;;;;;;16.23;44.31;101310.22;4958385;29;1133;-40
2024/03/09 06:16:46;;;;;;;;;;;;;;;15.99;44.09;101316.13;4953084;28;1088;-45
2024/03/09 06:19:13;;;;;;;;;;;;;;;15.35;45.08;101309.25;4950304;28;1101;-42
2024/03/09 06:21:39;;;;;;;;;;;;;;;16.12;44.82;101315.34;4958303;29;1005;-43
2024/03/09 06:24:04;;;;;;;;;;;;;;;16.21;43.53;101319.25;4957787;29;2460;-40
2024/03/09 06:26:30;;;;;;;;;;;;;;;15.39;45.37;101320.53;4958335;29;1963;-41
2024/03/09 06:28:56;;;;;;;;;;;;;;;15.70;45.37;101317.88;4958219;29;1172;-42
2024/03/09 06:31:21;;;;;;;;;;;;;;;16.74;42.44;101324.75;4957940;29;1188;-45
2024/03/09 06:33:47;;;;;;;;;;;;;;;15.57;44.92;101321.25;4958301;29;1015;-45
2024/03/09 06:36:13;;;;;;;;;;;;;;;17.20;42.29;101329.84;4957641;29;1053;-39
2024/03/09 06:38:40;;;;;;;;;;;;;;;16.28;43.46;101324.06;4955930;29;990;-45
2024/03/09 06:41:06;;;;;;;;;;;;;;;15.50;45.16;101334.00;4958323;29;1077;-43
2024/03/09 06:43:32;;;;;;;;;;;;;;;15.23;45.04;101320.59;4957775;29;1090;-43
2024/03/09 06:45:59;;;;;;;;;;;;;;;16.80;43.22;101328.81;4957987;29;1883;-44
2024/03/09 06:48:25;;;;;;;;;;;;;;;15.93;44.38;101332.41;4952288;29;893;-42
2024/03/09 06:50:50;;;;;;;;;;;;;;;15.34;45.17;101328.75;4957273;29;1149;-40
2024/03/09 06:53:16;;;;;;;;;;;;;;;16.59;43.03;101329.25;4957597;29;2530;-40
2024/03/09 06:55:41;;;;;;;;;;;;;;;15.48;45.54;101335.06;4940514;29;1138;-44
2024/03/09 06:58:07;;;;;;;;;;;;;;;16.68;43.51;101338.44;4957770;29;1137;-42
2024/03/09 07:00:34;;;;;;;;;;;;;;;16.07;43.92;101333.34;4957210;29;1164;-41
2024/03/09 07:02:59;;;;;;;;;;;;;;;15.36;45.31;101339.28;4957829;29;1049;-38
2024/03/09 07:05:28;;;;;;;;;;;;;;;16.72;43.24;101334.63;4956701;29;1516;-41
2024/03/09 07:07:56;;;;;;;;;;;;;;;15.78;44.62;101334.19;4937897;29;1069;-41
2024/03/09 07:10:22;;;;;;;;;;;;;;;15.37;45.17;101335.66;4955615;29;1042;-41
2024/03/09 07:12:48;;;;;;;;;;;;;;;16.87;42.84;101332.78;4957486;29;916;-41
2024/03/09 07:15:17;;;;;;;;;;;;;;;15.79;44.38;101336.75;4947573;29;1235;-40
2024/03/09 07:17:43;;;;;;;;;;;;;;;15.25;45.68;101332.78;4961674;29;1104;-40
2024/03/09 07:20:12;;;;;;;;;;;;;;;15.04;45.38;101333.09;4955338;29;1158;-44
2024/03/09 07:22:41;;;;;;;;;;;;;;;16.12;44.74;101339.25;4954985;29;1207;-46
2024/03/09 07:25:10;;;;;;;;;;;;;;;16.39;43.16;101336.69;4961125;29;2401;-41
2024/03/09 07:27:35;;;;;;;;;;;;;;;15.36;45.48;101332.19;4960930;28;2022;-40
2024/03/09 07:30:09;;;;;;;;;;;;;;;17.36;41.64;101333.19;4960878;29;1207;-41
2024/03/09 07:32:43;;;;;;;;;;;;;;;15.99;44.43;101329.41;4961076;29;1101;-43
2024/03/09 07:35:15;;;;;;;;;;;;;;;15.45;45.01;101335.25;4957078;29;1299;-43
2024/03/09 07:37:44;;;;;;;;;;;;;;;15.23;45.31;101339.97;4949113;29;1050;-45
2024/03/09 07:40:10;;;;;;;;;;;;;;;17.14;42.12;101333.75;4960900;29;1220;-38
2024/03/09 07:42:37;;;;;;;;;;;;;;;15.69;44.90;101337.38;4960821;29;1090;-38
2024/03/09 07:45:06;;;;;;;;;;;;;;;15.26;45.20;101328.34;4949576;29;991;-40
2024/03/09 07:47:35;;;;;;;;;;;;;;;15.06;45.02;101331.19;4954589;29;1985;-42
2024/03/09 07:50:01;;;;;;;;;;;;;;;16.77;43.27;101336.97;4960982;29;1050;-43
2024/03/09 07:52:26;;;;;;;;;;;;;;;15.66;44.98;101341.06;4960576;29;1049;-43
2024/03/09 07:54:52;;;;;;;;;;;;;;;16.96;42.73;101335.78;4960446;29;2854;-42
2024/03/09 07:57:17;;;;;;;;;;;;;;;17.34;41.31;101336.91;4960519;29;1109;-44
2024/03/09 07:59:43;;;;;;;;;;;;;;;15.87;44.68;101343.34;4953783;29;862;-42
2024/03/09 08:02:10;;;;;;;;;;;;;;;15.76;45.40;101333.41;4954982;29;1171;-40
2024/03/09 08:04:35;;;;;;;;;;;;;;;16.65;42.78;101339.47;4960367;28;1199;-41
2024/03/09 08:07:01;;;;;;;;;;;;;;;15.66;44.58;101333.09;4960011;29;1906;-44
2024/03/09 08:09:28;;;;;;;;;;;;;;;17.74;40.84;101339.53;4960388;29;1236;-44
2024/03/09 08:11:53;;;;;;;;;;;;;;;16.49;43.16;101341.41;4959594;29;1410;-40
2024/03/09 08:14:19;;;;;;;;;;;;;;;15.81;44.67;101343.75;4960667;28;1197;-41
2024/03/09 08:16:45;;;;;;;;;;;;;;;15.46;44.84;101340.44;4959773;29;1239;-43
2024/03/09 08:19:10;;;;;;;;;;;;;;;17.04;42.37;101346.78;4960447;29;1007;-43
2024/03/09 08:21:37;;;;;;;;;;;;;;;15.85;44.72;101347.94;4947254;29;1173;-39
2024/03/09 08:24:04;;;;;;;;;;;;;;;15.35;45.26;101335.75;4951493;29;1932;-43
2024/03/09 08:26:31;;;;;;;;;;;;;;;15.58;45.42;101340.66;4946458;29;1978;-43
2024/03/09 08:28:56;;;;;;;;;;;;;;;15.99;44.34;101337.34;4959946;29;1130;-43
2024/03/09 08:31:24;;;;;;;;;;;;;;;16.56;43.47;101333.91;4947706;29;1025;-43
2024/03/09 08:33:50;;;;;;;;;;;;;;;18.17;39.88;101340.16;4958885;29;1398;-42
2024/03/09 08:36:20;;;;;;;;;;;;;;;16.42;43.38;101335.63;4942027;29;1015;-39
2024/03/09 08:38:49;;;;;;;;;;;;;;;15.74;44.53;101330.84;4958450;29;1041;-40
2024/03/09 08:41:15;;;;;;;;;;;;;;;15.77;44.86;101337.75;4959862;29;1026;-41
2024/03/09 08:43:40;;;;;;;;;;;;;;;16.79;42.62;101329.78;4959255;29;1231;-41
2024/03/09 08:46:07;;;;;;;;;;;;;;;15.77;44.69;101335.09;4959553;29;1906;-41
2024/03/09 08:48:32;;;;;;;;;;;;;;;16.02;44.54;101331.00;4959736;29;952;-45
2024/03/09 08:50:59;;;;;;;;;;;;;;;16.06;43.89;101331.66;4959601;29;1045;-40
2024/03/09 08:53:25;;;;;;;;;;;;;;;15.60;45.21;101328.19;4950643;29;2436;-40
2024/03/09 08:55:51;;;;;;;;;;;;;;;17.35;41.24;101327.97;4956553;29;1086;-41
2024/03/09 08:58:17;;;;;;;;;;;;;;;15.95;44.41;101325.16;4959348;29;1299;-42
2024/03/09 09:00:42;;;;;;;;;;;;;;;15.47;45.20;101323.59;4951554;29;1378;-41
2024/03/09 09:03:10;;;;;;;;;;;;;;;16.05;44.56;101324.66;4959394;28;1101;-40
2024/03/09 09:05:36;;;;;;;;;;;;;;;15.87;44.27;101323.00;4959445;29;1977;-45
2024/03/09 09:08:02;;;;;;;;;;;;;;;15.74;43.52;101192.06;4959873;29;1336;-42
2024/03/09 09:10:27;;;;;;;;;;;;;;;17.67;40.54;101321.41;4959095;29;1183;-42
2024/03/09 09:12:54;;;;;;;;;;;;;;;16.02;44.12;101315.94;4959286;28;858;-43
2024/03/09 09:15:19;;;;;;;;;;;;;;;15.54;45.00;101317.00;4946424;29;1281;-44
2024/03/09 09:17:45;;;;;;;;;;;;;;;15.47;44.49;101320.06;4946442;29;1106;-43
2024/03/09 09:20:11;;;;;;;;;;;;;;;16.96;42.50;101310.06;4959156;29;1264;-42
2024/03/09 09:22:40;;;;;;;;;;;;;;;15.88;44.41;101322.03;4959016;29;1153;-41
2024/03/09 09:25:06;;;;;;;;;;;;;;;15.75;44.90;101308.66;4958567;29;2848;-41
2024/03/09 09:27:34;;;;;;;;;;;;;;;16.71;42.54;101311.69;4958644;29;1975;-43
2024/03/09 09:30:01;;;;;;;;;;;;;;;15.69;44.71;101313.50;4958497;29;1315;-39
2024/03/09 09:32:26;;;;;;;;;;;;;;;17.07;42.16;101311.16;4958798;29;1096;-40
2024/03/09 09:34:52;;;;;;;;;;;;;;;16.52;42.64;101304.88;4959096;29;1054;-41
2024/03/09 09:37:18;;;;;;;;;;;;;;;15.79;44.31;101301.38;4954233;28;880;-45
2024/03/09 09:39:43;;;;;;;;;;;;;;;15.41;45.04;101319.50;4941712;29;1146;-40
2024/03/09 09:42:09;;;;;;;;;;;;;;;17.28;41.89;101311.59;4941763;29;1332;-40
2024/03/09 09:44:35;;;;;;;;;;;;;;;16.08;43.81;101311.19;4958677;29;1260;-44
2024/03/09 09:47:00;;;;;;;;;;;;;;;15.53;45.52;101311.78;4957522;29;1961;-43
2024/03/09 09:49:26;;;;;;;;;;;;;;;16.69;42.62;101312.72;4958423;29;1082;-41
2024/03/09 09:51:52;;;;;;;;;;;;;;;15.73;44.68;101307.91;4941511;28;1133;-41
2024/03/09 09:54:23;;;;;;;;;;;;;;;16.18;44.65;101304.38;4957855;29;2540;-41
2024/03/09 09:56:49;;;;;;;;;;;;;;;16.22;43.59;101308.53;4958377;28;1185;-42
2024/03/09 09:59:14;;;;;;;;;;;;;;;15.55;44.62;101316.03;4958749;29;1002;-40
2024/03/09 10:01:40;;;;;;;;;;;;;;;15.32;45.02;101305.91;4957988;29;908;-41
2024/03/09 10:04:05;;;;;;;;;;;;;;;17.25;41.82;101301.13;4951418;29;1155;-42
2024/03/09 10:06:31;;;;;;;;;;;;;;;15.76;44.50;101317.50;4952540;29;1903;-43
2024/03/09 10:08:58;;;;;;;;;;;;;;;15.37;45.08;101307.38;4958560;29;1017;-43
2024/03/09 10:11:24;;;;;;;;;;;;;;;16.87;42.81;101303.56;4958558;29;1108;-41
2024/03/09 10:13:52;;;;;;;;;;;;;;;16.12;44.14;101308.25;4956535;29;1199;-40
2024/03/09 10:16:26;;;;;;;;;;;;;;;15.57;44.75;101313.28;4941631;29;1102;-42
2024/03/09 10:18:52;;;;;;;;;;;;;;;16.11;44.71;101309.22;4958285;29;1033;-40
2024/03/09 10:21:25;;;;;;;;;;;;;;;16.01;43.66;101302.75;4958185;29;1200;-44
2024/03/09 10:24:00;;;;;;;;;;;;;;;17.04;42.30;101304.25;4958413;29;2459;-42
2024/03/09 10:26:26;;;;;;;;;;;;;;;17.85;40.14;101304.16;4958220;29;1907;-43
2024/03/09 10:28:55;;;;;;;;;;;;;;;16.35;43.50;101294.50;4957067;29;1199;-43
2024/03/09 10:31:21;;;;;;;;;;;;;;;15.87;44.19;101296.47;4958031;29;1156;-42
2024/03/09 10:33:51;;;;;;;;;;;;;;;16.74;43.12;101292.00;4951680;29;1105;-40
2024/03/09 10:36:17;;;;;;;;;;;;;;;16.22;43.56;101299.69;4948848;29;1133;-43
2024/03/09 10:38:43;;;;;;;;;;;;;;;17.44;41.69;101291.91;4957398;29;1022;-45
2024/03/09 10:41:08;;;;;;;;;;;;;;;18.07;39.69;101286.69;4958089;29;1050;-41
2024/03/09 10:43:34;;;;;;;;;;;;;;;16.55;42.85;101287.06;4928256;29;1126;-40
2024/03/09 10:46:00;;;;;;;;;;;;;;;16.03;44.09;101280.47;4957889;29;1911;-43
2024/03/09 10:48:26;;;;;;;;;;;;;;;15.71;44.60;101277.13;4937736;29;1114;-45
2024/03/09 10:51:04;;;;;;;;;;;;;;;16.73;42.82;101269.06;4941027;29;1045;-41
2024/03/09 10:53:40;;;;;;;;;;;;;;;15.77;44.69;101279.41;4957456;29;2433;-42
2024/03/09 10:56:06;;;;;;;;;;;;;;;17.04;42.52;101269.69;4940751;29;1113;-40
2024/03/09 10:58:32;;;;;;;;;;;;;;;16.20;43.83;101280.38;4956622;29;1053;-42
2024/03/09 11:00:58;;;;;;;;;;;;;;;15.67;44.50;101276.47;4952987;29;1014;-44
2024/03/09 11:03:23;;;;;;;;;;;;;;;15.53;44.73;101274.66;4950919;29;1146;-42
2024/03/09 11:05:49;;;;;;;;;;;;;;;15.22;44.82;101269.38;4955218;29;1982;-41
2024/03/09 11:08:15;;;;;;;;;;;;;;;17.23;42.12;101268.50;4957828;29;1224;-42
2024/03/09 11:10:41;;;;;;;;;;;;;;;15.90;44.51;101255.63;4943949;29;1280;-46
2024/03/09 11:13:12;;;;;;;;;;;;;;;16.00;44.90;101255.91;4952784;29;1370;-42
2024/03/09 11:15:38;;;;;;;;;;;;;;;16.95;42.28;101255.19;4956328;28;1271;-43
2024/03/09 11:18:07;;;;;;;;;;;;;;;15.87;44.46;101248.72;4957423;29;1327;-44
2024/03/09 11:20:33;;;;;;;;;;;;;;;17.33;41.74;101244.78;4957846;29;1359;-40
2024/03/09 11:22:58;;;;;;;;;;;;;;;16.47;43.24;101242.38;4957435;28;2615;-39
2024/03/09 11:25:33;;;;;;;;;;;;;;;15.79;44.48;101241.22;4954973;29;1351;-41
2024/03/09 11:27:59;;;;;;;;;;;;;;;17.04;42.47;101239.59;4952055;29;1918;-43
2024/03/09 11:30:26;;;;;;;;;;;;;;;15.92;44.51;101235.16;4949905;29;1113;-45
2024/03/09 11:32:54;;;;;;;;;;;;;;;15.49;44.60;101243.94;4938000;29;1137;-41
2024/03/09 11:35:32;;;;;;;;;;;;;;;16.64;43.53;101231.53;4950675;29;1112;-39
2024/03/09 11:38:00;;;;;;;;;;;;;;;15.98;43.88;101232.13;4957293;29;885;-39
2024/03/09 11:40:28;;;;;;;;;;;;;;;16.90;42.59;101236.03;4957184;29;1192;-41
2024/03/09 11:43:00;;;;;;;;;;;;;;;17.38;41.02;101222.22;4957659;29;1104;-40
2024/03/09 11:45:29;;;;;;;;;;;;;;;16.03;44.26;101222.09;4955085;29;1061;-41
2024/03/09 11:47:57;;;;;;;;;;;;;;;15.69;44.73;101234.78;4947544;29;1914;-40
2024/03/09 11:50:24;;;;;;;;;;;;;;;15.69;44.64;101233.91;4953643;29;1073;-40
2024/03/09 11:52:53;;;;;;;;;;;;;;;17.15;41.50;101229.13;4948244;29;1113;-41
2024/03/09 11:55:20;;;;;;;;;;;;;;;15.88;44.48;101225.69;4954600;29;1087;-42
2024/03/09 11:57:47;;;;;;;;;;;;;;;17.57;41.25;101238.72;4957262;29;1026;-41
2024/03/09 12:00:14;;;;;;;;;;;;;;;16.70;42.74;101224.13;4953282;28;998;-44
2024/03/09 12:02:40;;;;;;;;;;;;;;;15.90;44.38;101226.44;4951392;28;1263;-43
2024/03/09 12:05:15;;;;;;;;;;;;;;;15.67;44.24;101224.28;4960360;29;1085;-43
2024/03/09 12:07:47;;;;;;;;;;;;;;;15.50;44.61;101224.44;4960783;28;1976;-42
2024/03/09 12:10:15;;;;;;;;;;;;;;;16.86;42.31;101221.28;4970348;28;1113;-43
2024/03/09 12:12:44;;;;;;;;;;;;;;;15.73;44.72;101222.19;4959676;28;1414;-41
2024/03/09 12:15:10;;;;;;;;;;;;;;;15.83;44.80;101218.00;4960352;29;1038;-39
2024/03/09 12:17:37;;;;;;;;;;;;;;;16.60;42.61;101214.06;4960665;29;1174;-40
2024/03/09 12:20:04;;;;;;;;;;;;;;;15.80;44.38;101223.50;4960211;29;1169;-41
2024/03/09 12:22:30;;;;;;;;;;;;;;;15.38;45.11;101218.94;4959405;29;1076;-44
2024/03/09 12:24:57;;;;;;;;;;;;;;;16.74;42.53;101230.91;4943003;29;2557;-40
2024/03/09 12:27:24;;;;;;;;;;;;;;;15.75;44.71;101226.44;4960419;29;1918;-40
2024/03/09 12:29:50;;;;;;;;;;;;;;;15.43;45.02;101224.81;4959883;28;1053;-40
2024/03/09 12:32:16;;;;;;;;;;;;;;;17.28;41.81;101222.97;4943167;29;1046;-39
2024/03/09 12:34:41;;;;;;;;;;;;;;;16.00;43.82;101222.28;4954377;29;1081;-42
2024/03/09 12:37:07;;;;;;;;;;;;;;;15.59;44.94;101228.34;4953223;29;1130;-39
2024/03/09 12:39:32;;;;;;;;;;;;;;;16.64;42.72;101223.56;4946998;29;1169;-42
2024/03/09 12:42:00;;;;;;;;;;;;;;;15.65;44.48;101225.28;4959948;29;1430;-42
2024/03/09 12:44:27;;;;;;;;;;;;;;;15.39;44.98;101227.75;4953782;29;1042;-42
2024/03/09 12:46:53;;;;;;;;;;;;;;;17.25;41.90;101226.69;4936431;29;1915;-42
2024/03/09 12:49:19;;;;;;;;;;;;;;;15.88;44.08;101229.19;4957696;29;1225;-43